createdAt,value
2022-08-17T00:00:44.085Z,101030.33
2022-08-17T00:03:11.346Z,101031.81
2022-08-17T00:05:54.136Z,101028.77
2022-08-17T00:08:28.746Z,101035.09
2022-08-17T00:10:57.481Z,101039.81
2022-08-17T00:13:33.165Z,101039.41
2022-08-17T00:16:09.241Z,101040.16
2022-08-17T00:18:53.855Z,101041.50
2022-08-17T00:21:27.855Z,101047.58
2022-08-17T00:24:16.417Z,101043.65
2022-08-17T00:26:45.482Z,101038.68
2022-08-17T00:29:17.875Z,101035.60
2022-08-17T00:31:49.061Z,101027.64
2022-08-17T00:34:17.327Z,101026.63
2022-08-17T00:36:45.515Z,101030.02
2022-08-17T00:39:13.586Z,101030.48
2022-08-17T00:41:42.131Z,101032.79
2022-08-17T00:44:12.550Z,101030.27
2022-08-17T00:46:43.265Z,101029.36
2022-08-17T00:49:15.397Z,101030.52
2022-08-17T00:51:50.679Z,101032.19
2022-08-17T00:54:24.326Z,101037.96
2022-08-17T00:56:57.313Z,101044.30
2022-08-17T00:59:34.955Z,101036.00
2022-08-17T01:02:03.899Z,101038.40
2022-08-17T01:04:33.835Z,101035.71
2022-08-17T01:07:04.033Z,101035.49
2022-08-17T01:09:49.489Z,101033.49
2022-08-17T01:12:17.598Z,101032.36
2022-08-17T01:14:45.949Z,101033.02
2022-08-17T01:17:14.613Z,101033.32
2022-08-17T01:19:43.954Z,101038.73
2022-08-17T01:22:11.951Z,101037.80
2022-08-17T01:24:46.272Z,101037.11
2022-08-17T01:27:18.561Z,101037.79
2022-08-17T01:29:52.347Z,101045.80
2022-08-17T01:32:20.765Z,101047.31
2022-08-17T01:34:51.003Z,101044.56
2022-08-17T01:37:27.886Z,101045.75
2022-08-17T01:40:36.161Z,101042.70
2022-08-17T01:43:14.667Z,101043.32
2022-08-17T01:45:46.612Z,101046.55
2022-08-17T01:48:15.439Z,101041.98
2022-08-17T01:50:45.210Z,101041.47
2022-08-17T01:53:20.605Z,101041.48
2022-08-17T01:55:59.174Z,101041.97
2022-08-17T01:58:27.362Z,101037.04
2022-08-17T02:01:00.721Z,101037.81
2022-08-17T02:03:30.394Z,101034.25
2022-08-17T02:05:58.833Z,101027.95
2022-08-17T02:08:37.305Z,101033.96
2022-08-17T02:11:14.736Z,101033.79
2022-08-17T02:13:45.795Z,101025.27
2022-08-17T02:16:14.353Z,101033.84
2022-08-17T02:18:42.594Z,101034.50
2022-08-17T02:21:10.823Z,101035.00
2022-08-17T02:23:46.664Z,101038.80
2022-08-17T02:26:25.701Z,101037.19
2022-08-17T02:28:55.183Z,101030.41
2022-08-17T02:31:23.298Z,101031.96
2022-08-17T02:33:56.789Z,101031.48
2022-08-17T02:36:37.056Z,101030.45
2022-08-17T02:39:07.036Z,101031.20
2022-08-17T02:41:36.688Z,101031.05
2022-08-17T02:44:06.093Z,101032.36
2022-08-17T02:46:34.439Z,101032.73
2022-08-17T02:49:03.426Z,101031.86
2022-08-17T02:51:31.982Z,101031.19
2022-08-17T02:54:41.430Z,101031.23
2022-08-17T02:56:48.093Z,101030.61
2022-08-17T02:59:16.266Z,101027.70
2022-08-17T03:01:44.375Z,101025.39
2022-08-17T03:04:12.516Z,101028.27
2022-08-17T03:06:40.578Z,101026.64
2022-08-17T03:09:08.717Z,101028.02
2022-08-17T03:11:36.934Z,101030.19
2022-08-17T03:14:04.995Z,101027.34
2022-08-17T03:16:33.085Z,101030.48
2022-08-17T03:19:02.776Z,101030.67
2022-08-17T03:21:30.791Z,101028.11
2022-08-17T03:23:58.996Z,101026.98
2022-08-17T03:26:29.727Z,101031.30
2022-08-17T03:28:58.294Z,101032.95
2022-08-17T03:31:26.446Z,101033.02
2022-08-17T03:33:54.436Z,101033.22
2022-08-17T03:36:22.757Z,101035.90
2022-08-17T03:38:51.067Z,101035.14
2022-08-17T03:41:19.202Z,101039.56
2022-08-17T03:43:47.291Z,101040.10
2022-08-17T03:46:35.463Z,101044.54
2022-08-17T03:49:25.175Z,101048.11
2022-08-17T03:52:16.098Z,101053.14
2022-08-17T03:55:03.930Z,101052.45
2022-08-17T03:57:32.593Z,101049.46
2022-08-17T04:00:00.685Z,101051.83
2022-08-17T04:02:34.185Z,101055.95
2022-08-17T04:05:02.504Z,101054.15
2022-08-17T04:07:31.759Z,101054.47
2022-08-17T04:10:00.591Z,101060.80
2022-08-17T04:12:31.231Z,101066.32
2022-08-17T04:14:59.659Z,101067.58
2022-08-17T04:17:29.483Z,101071.93
2022-08-17T04:19:57.858Z,101070.74
2022-08-17T04:22:30.205Z,101069.55
2022-08-17T04:25:04.902Z,101068.45
2022-08-17T04:27:33.068Z,101062.47
2022-08-17T04:30:01.849Z,101060.74
2022-08-17T04:33:04.596Z,101063.23
2022-08-17T04:35:23.920Z,101067.14
2022-08-17T04:37:52.328Z,101075.30
2022-08-17T04:40:40.311Z,101082.81
2022-08-17T04:43:12.433Z,101078.95
2022-08-17T04:45:55.239Z,101081.59
2022-08-17T04:48:36.138Z,101080.61
2022-08-17T04:51:12.020Z,101078.64
2022-08-17T04:53:42.951Z,101075.95
2022-08-17T04:56:16.923Z,101077.17
2022-08-17T04:58:49.866Z,101078.08
2022-08-17T05:01:23.676Z,101076.70
2022-08-17T05:03:54.914Z,101077.68
2022-08-17T05:06:23.765Z,101077.03
2022-08-17T05:08:51.902Z,101076.38
2022-08-17T05:11:20.571Z,101074.48
2022-08-17T05:13:50.440Z,101070.29
2022-08-17T05:16:21.147Z,101067.90
2022-08-17T05:18:50.090Z,101074.87
2022-08-17T05:21:19.598Z,101072.06
2022-08-17T05:23:54.983Z,101065.30
2022-08-17T05:26:27.563Z,101064.70
2022-08-17T05:29:00.367Z,101064.54
2022-08-17T05:31:31.485Z,101067.88
2022-08-17T05:33:59.756Z,101066.18
2022-08-17T05:36:41.622Z,101065.21
2022-08-17T05:39:16.414Z,101065.70
2022-08-17T05:41:48.443Z,101063.89
2022-08-17T05:44:17.461Z,101070.28
2022-08-17T05:46:51.140Z,101075.40
2022-08-17T05:49:27.333Z,101076.77
2022-08-17T05:52:07.140Z,101076.33
2022-08-17T05:54:56.640Z,101077.73
2022-08-17T05:57:54.186Z,101086.38
2022-08-17T06:00:30.529Z,101087.48
2022-08-17T06:03:17.997Z,101087.66
2022-08-17T06:05:54.229Z,101087.76
2022-08-17T06:08:42.771Z,101090.14
2022-08-17T06:11:43.334Z,101094.29
2022-08-17T06:14:29.319Z,101096.61
2022-08-17T06:17:03.416Z,101091.71
2022-08-17T06:19:38.539Z,101092.33
2022-08-17T06:22:08.976Z,101090.51
2022-08-17T06:24:37.045Z,101092.45
2022-08-17T06:27:18.327Z,101095.28
2022-08-17T06:30:15.399Z,101095.55
2022-08-17T06:32:46.558Z,101090.70
2022-08-17T06:35:19.766Z,101098.87
2022-08-17T06:38:07.132Z,101099.77
2022-08-17T06:40:46.134Z,101098.13
2022-08-17T06:43:26.297Z,101100.34
2022-08-17T06:45:59.914Z,101096.45
2022-08-17T06:49:09.249Z,101097.91
2022-08-17T06:51:46.540Z,101099.04
2022-08-17T06:54:34.720Z,101100.91
2022-08-17T06:57:18.810Z,101100.81
2022-08-17T07:00:06.251Z,101097.26
2022-08-17T07:02:53.524Z,101100.66
2022-08-17T07:05:31.929Z,101098.70
2022-08-17T07:08:12.038Z,101101.04
2022-08-17T07:11:13.285Z,101107.98
2022-08-17T07:13:51.443Z,101110.06
2022-08-17T07:16:26.533Z,101107.30
2022-08-17T07:18:57.542Z,101111.68
2022-08-17T07:22:10.898Z,101113.88
2022-08-17T07:24:47.883Z,101117.59
2022-08-17T07:27:23.834Z,101115.28
2022-08-17T07:30:03.758Z,101114.09
2022-08-17T07:32:39.735Z,101118.39
2022-08-17T07:35:15.389Z,101116.20
2022-08-17T07:37:53.546Z,101108.33
2022-08-17T07:40:34.433Z,101111.76
2022-08-17T07:43:21.982Z,101110.84
2022-08-17T07:46:25.660Z,101113.91
2022-08-17T07:48:57.373Z,101114.45
2022-08-17T07:51:31.607Z,101113.03
2022-08-17T07:54:22.714Z,101111.96
2022-08-17T07:56:55.089Z,101113.98
2022-08-17T07:59:33.613Z,101107.59
2022-08-17T08:02:17.251Z,101103.77
2022-08-17T08:05:30.655Z,101105.23
2022-08-17T08:08:27.369Z,101101.57
2022-08-17T08:11:08.361Z,101102.15
2022-08-17T08:13:43.942Z,101103.63
2022-08-17T08:16:22.917Z,101102.75
2022-08-17T08:18:57.097Z,101105.13
2022-08-17T08:21:33.343Z,101099.91
2022-08-17T08:24:09.845Z,101101.72
2022-08-17T08:26:55.555Z,101103.36
2022-08-17T08:29:31.191Z,101104.54
2022-08-17T08:32:13.789Z,101104.27
2022-08-17T08:35:01.406Z,101108.61
2022-08-17T08:37:58.671Z,101108.92
2022-08-17T08:41:15.754Z,101109.83
2022-08-17T08:43:43.865Z,101113.05
2022-08-17T08:46:57.927Z,101112.74
2022-08-17T08:50:02.624Z,101113.23
2022-08-17T08:52:40.350Z,101112.17
2022-08-17T08:55:32.546Z,101111.94
2022-08-17T08:58:07.837Z,101109.08
2022-08-17T09:00:59.084Z,101108.11
2022-08-17T09:03:52.761Z,101103.92
2022-08-17T09:06:49.356Z,101107.85
2022-08-17T09:09:59.668Z,101109.02
2022-08-17T09:12:47.754Z,101107.97
2022-08-17T09:15:21.137Z,101111.15
2022-08-17T09:21:06.118Z,101105.83
2022-08-17T09:23:34.050Z,101107.98
2022-08-17T09:26:14.527Z,101105.16
2022-08-17T09:28:48.448Z,101105.56
2022-08-17T09:31:21.763Z,101107.51
2022-08-17T09:33:51.411Z,101107.62
2022-08-17T09:36:22.681Z,101109.85
2022-08-17T09:39:18.635Z,101109.17
2022-08-17T09:41:53.901Z,101111.34
2022-08-17T09:44:27.303Z,101114.67
2022-08-17T09:47:04.322Z,101115.66
2022-08-17T09:49:40.860Z,101116.02
2022-08-17T09:52:22.014Z,101117.35
2022-08-17T09:54:52.726Z,101110.48
2022-08-17T09:57:32.134Z,101112.68
2022-08-17T10:00:18.969Z,101109.23
2022-08-17T10:03:00.781Z,101107.88
2022-08-17T10:05:56.856Z,101107.17
2022-08-17T10:09:08.417Z,101108.89
2022-08-17T10:12:02.692Z,101109.52
2022-08-17T10:14:53.559Z,101110.09
2022-08-17T10:17:26.350Z,101109.76
2022-08-17T10:20:03.365Z,101106.78
2022-08-17T10:23:20.705Z,101103.13
2022-08-17T10:26:15.822Z,101102.33
2022-08-17T10:29:03.011Z,101107.94
2022-08-17T10:31:43.377Z,101106.66
2022-08-17T10:34:30.350Z,101107.78
2022-08-17T10:37:20.393Z,101107.32
2022-08-17T10:39:52.693Z,101106.81
2022-08-17T10:42:33.344Z,101105.96
2022-08-17T10:45:16.599Z,101105.77
2022-08-17T10:48:07.642Z,101113.04
2022-08-17T10:51:00.629Z,101119.18
2022-08-17T10:53:31.605Z,101117.86
2022-08-17T10:56:11.790Z,101117.29
2022-08-17T10:58:57.298Z,101110.82
2022-08-17T11:01:34.488Z,101110.10
2022-08-17T11:04:43.140Z,101110.36
2022-08-17T11:07:45.853Z,101106.92
2022-08-17T11:10:42.567Z,101104.75
2022-08-17T11:13:47.700Z,101105.59
2022-08-17T11:16:57.959Z,101102.27
2022-08-17T11:19:43.693Z,101100.02
2022-08-17T11:22:22.668Z,101103.69
2022-08-17T11:24:54.429Z,101104.10
2022-08-17T11:27:25.057Z,101103.23
2022-08-17T11:30:02.559Z,101103.11
2022-08-17T11:32:52.873Z,101110.30
2022-08-17T11:35:23.108Z,101114.21
2022-08-17T11:38:00.613Z,101111.35
2022-08-17T11:41:07.489Z,101111.77
2022-08-17T11:43:56.741Z,101114.66
2022-08-17T11:47:17.504Z,101112.15
2022-08-17T11:50:15.706Z,101123.92
2022-08-17T11:52:47.610Z,101126.23
2022-08-17T11:55:38.189Z,101119.78
2022-08-17T11:58:32.266Z,101117.95
2022-08-17T12:01:07.038Z,101121.03
2022-08-17T12:03:35.118Z,101126.11
2022-08-17T12:06:17.773Z,101124.13
2022-08-17T12:08:55.340Z,101125.65
2022-08-17T12:12:11.870Z,101129.13
2022-08-17T12:15:10.585Z,101125.26
2022-08-17T12:17:42.767Z,101124.25
2022-08-17T12:20:29.393Z,101121.86
2022-08-17T12:23:12.449Z,101125.02
2022-08-17T12:26:07.573Z,101131.30
2022-08-17T12:28:38.887Z,101135.91
2022-08-17T12:31:16.252Z,101136.42
2022-08-17T12:33:46.140Z,101137.07
2022-08-17T12:36:19.130Z,101137.94
2022-08-17T12:39:12.842Z,101136.04
2022-08-17T12:41:46.958Z,101144.55
2022-08-17T12:44:18.688Z,101150.33
2022-08-17T12:46:58.820Z,101154.91
2022-08-17T12:49:38.458Z,101154.36
2022-08-17T12:52:12.350Z,101160.05
2022-08-17T12:55:07.060Z,101162.55
2022-08-17T12:57:42.640Z,101169.86
2022-08-17T13:00:34.118Z,101161.91
2022-08-17T13:03:21.496Z,101162.89
2022-08-17T13:05:52.292Z,101159.94
2022-08-17T13:08:36.121Z,101157.02
2022-08-17T13:11:19.130Z,101158.08
2022-08-17T13:13:54.524Z,101154.33
2022-08-17T13:16:26.691Z,101157.98
2022-08-17T13:19:07.346Z,101155.88
2022-08-17T13:21:37.830Z,101158.05
2022-08-17T13:24:17.637Z,101148.46
2022-08-17T13:26:51.453Z,101149.52
2022-08-17T13:29:25.450Z,101143.41
2022-08-17T13:32:13.254Z,101143.27
2022-08-17T13:35:15.085Z,101135.80
2022-08-17T13:37:58.142Z,101139.21
2022-08-17T13:40:31.128Z,101147.20
2022-08-17T13:42:59.347Z,101144.98
2022-08-17T13:45:35.245Z,101146.73
2022-08-17T13:48:06.472Z,101146.89
2022-08-17T13:50:41.232Z,101146.42
2022-08-17T13:53:40.244Z,101141.20
2022-08-17T13:56:37.279Z,101144.58
2022-08-17T13:59:04.898Z,101145.56
2022-08-17T14:01:34.292Z,101142.29
2022-08-17T14:04:07.019Z,101142.80
2022-08-17T14:06:53.644Z,101142.95
2022-08-17T14:09:36.842Z,101140.11
2022-08-17T14:12:10.786Z,101138.38
2022-08-17T14:14:39.664Z,101140.83
2022-08-17T14:17:07.986Z,101142.71
2022-08-17T14:19:36.932Z,101143.50
2022-08-17T14:22:09.045Z,101144.83
2022-08-17T14:24:44.704Z,101142.83
2022-08-17T14:27:12.847Z,101141.21
2022-08-17T14:29:41.434Z,101139.32
2022-08-17T14:32:21.380Z,101137.55
2022-08-17T14:34:49.789Z,101135.54
2022-08-17T14:37:20.025Z,101131.09
2022-08-17T14:39:48.299Z,101133.92
2022-08-17T14:42:18.752Z,101136.36
2022-08-17T14:44:46.692Z,101137.51
2022-08-17T14:47:15.066Z,101138.29
2022-08-17T14:49:43.790Z,101136.55
2022-08-17T14:52:21.818Z,101130.91
2022-08-17T14:54:51.661Z,101136.29
2022-08-17T14:57:33.140Z,101142.58
2022-08-17T15:00:03.797Z,101138.02
2022-08-17T15:02:53.800Z,101138.80
2022-08-17T15:05:26.061Z,101141.23
2022-08-17T15:07:54.092Z,101148.30
2022-08-17T15:10:23.408Z,101146.93
2022-08-17T15:12:53.985Z,101151.73
2022-08-17T15:15:23.014Z,101154.10
2022-08-17T15:17:51.682Z,101153.95
2022-08-17T15:20:22.988Z,101149.56
2022-08-17T15:22:55.174Z,101150.73
2022-08-17T15:25:25.577Z,101141.23
2022-08-17T15:27:55.866Z,101137.73
2022-08-17T15:30:25.997Z,101139.64
2022-08-17T15:32:56.684Z,101140.99
2022-08-17T15:35:29.317Z,101141.44
2022-08-17T15:38:10.618Z,101139.42
2022-08-17T15:40:44.106Z,101142.69
2022-08-17T15:43:15.766Z,101139.02
2022-08-17T15:45:44.664Z,101138.59
2022-08-17T15:48:44.861Z,101139.07
2022-08-17T15:51:15.071Z,101137.23
2022-08-17T15:53:46.034Z,101139.33
2022-08-17T15:56:15.217Z,101141.30
2022-08-17T15:58:44.821Z,101146.04
2022-08-17T16:01:18.373Z,101142.36
2022-08-17T16:04:04.732Z,101140.16
2022-08-17T16:06:35.475Z,101140.63
2022-08-17T16:09:04.131Z,101142.20
2022-08-17T16:11:32.018Z,101138.64
2022-08-17T16:13:59.899Z,101140.00
2022-08-17T16:16:31.482Z,101137.88
2022-08-17T16:18:59.502Z,101136.23
2022-08-17T16:21:31.237Z,101138.41
2022-08-17T16:24:12.833Z,101137.14
2022-08-17T16:26:42.865Z,101137.22
2022-08-17T16:29:10.991Z,101135.52
2022-08-17T16:31:39.291Z,101140.86
2022-08-17T16:34:17.505Z,101140.03
2022-08-17T16:36:53.598Z,101138.93
2022-08-17T16:39:29.190Z,101144.16
2022-08-17T16:41:57.690Z,101139.40
2022-08-17T16:44:29.081Z,101141.39
2022-08-17T16:46:57.575Z,101143.95
2022-08-17T16:49:35.728Z,101146.45
2022-08-17T16:52:10.422Z,101146.10
2022-08-17T16:54:43.962Z,101141.94
2022-08-17T16:57:14.412Z,101143.41
2022-08-17T16:59:47.827Z,101146.80
2022-08-17T17:02:24.499Z,101150.17
2022-08-17T17:05:02.649Z,101144.67
2022-08-17T17:07:37.184Z,101144.46
2022-08-17T17:10:10.043Z,101144.40
2022-08-17T17:13:02.745Z,101144.80
2022-08-17T17:15:36.608Z,101151.52
2022-08-17T17:18:06.732Z,101154.41
2022-08-17T17:20:47.791Z,101152.79
2022-08-17T17:23:34.409Z,101157.77
2022-08-17T17:26:17.482Z,101162.59
2022-08-17T17:28:56.797Z,101159.19
2022-08-17T17:31:33.660Z,101161.98
2022-08-17T17:34:04.889Z,101165.37
2022-08-17T17:36:54.215Z,101169.31
2022-08-17T17:39:33.591Z,101166.00
2022-08-17T17:42:10.045Z,101175.11
2022-08-17T17:44:53.581Z,101178.52
2022-08-17T17:47:21.705Z,101179.98
2022-08-17T17:49:49.856Z,101180.16
2022-08-17T17:52:46.570Z,101177.52
2022-08-17T17:55:33.803Z,101175.79
2022-08-17T17:58:13.887Z,101178.92
2022-08-17T18:00:49.508Z,101180.73
2022-08-17T18:03:41.818Z,101182.85
2022-08-17T18:06:34.673Z,101184.44
2022-08-17T18:09:20.870Z,101188.84
2022-08-17T18:12:08.800Z,101188.56
2022-08-17T18:14:43.309Z,101189.23
2022-08-17T18:17:11.223Z,101187.59
2022-08-17T18:19:40.008Z,101187.48
2022-08-17T18:22:15.633Z,101197.66
2022-08-17T18:24:47.810Z,101200.52
2022-08-17T18:27:21.215Z,101203.88
2022-08-17T18:29:54.632Z,101209.02
2022-08-17T18:32:41.545Z,101208.50
2022-08-17T18:35:09.337Z,101207.77
2022-08-17T18:37:49.508Z,101206.67
2022-08-17T18:40:17.696Z,101200.05
2022-08-17T18:43:04.712Z,101203.59
2022-08-17T18:45:47.658Z,101201.39
2022-08-17T18:48:29.547Z,101195.85
2022-08-17T18:51:26.745Z,101200.30
2022-08-17T18:54:21.383Z,101200.67
2022-08-17T18:56:56.310Z,101199.02
2022-08-17T18:59:45.060Z,101199.65
2022-08-17T19:02:38.709Z,101210.06
2022-08-17T19:05:26.963Z,101210.55
2022-08-17T19:08:20.347Z,101211.52
2022-08-17T19:10:56.319Z,101215.86
2022-08-17T19:13:36.501Z,101216.52
2022-08-17T19:16:15.914Z,101220.10
2022-08-17T19:18:50.938Z,101216.89
2022-08-17T19:21:24.149Z,101215.65
2022-08-17T19:23:54.373Z,101214.60
2022-08-17T19:26:54.502Z,101212.76
2022-08-17T19:29:27.013Z,101216.64
2022-08-17T19:31:59.680Z,101226.92
2022-08-17T19:34:36.422Z,101233.98
2022-08-17T19:37:36.933Z,101241.40
2022-08-17T19:40:07.789Z,101253.58
2022-08-17T19:42:51.067Z,101259.25
2022-08-17T19:45:34.604Z,101265.89
2022-08-17T19:48:18.500Z,101267.45
2022-08-17T19:51:14.164Z,101274.86
2022-08-17T19:54:06.644Z,101276.75
2022-08-17T19:56:42.744Z,101277.84
2022-08-17T19:59:35.789Z,101270.40
2022-08-17T20:02:31.317Z,101267.41
2022-08-17T20:05:05.228Z,101268.08
2022-08-17T20:07:52.866Z,101269.17
2022-08-17T20:10:30.753Z,101270.05
2022-08-17T20:13:04.494Z,101269.14
2022-08-17T20:15:37.921Z,101268.06
2022-08-17T20:18:13.790Z,101273.48
2022-08-17T20:20:47.039Z,101276.61
2022-08-17T20:23:53.943Z,101277.55
2022-08-17T20:26:43.599Z,101279.13
2022-08-17T20:29:37.586Z,101278.56
2022-08-17T20:32:18.997Z,101276.73
2022-08-17T20:34:48.180Z,101275.88
2022-08-17T20:37:16.325Z,101276.44
2022-08-17T20:40:05.031Z,101277.16
2022-08-17T20:42:34.017Z,101273.70
2022-08-17T20:45:21.864Z,101272.37
2022-08-17T20:48:22.099Z,101269.46
2022-08-17T20:50:51.941Z,101269.47
2022-08-17T20:53:47.818Z,101269.35
2022-08-17T20:56:43.847Z,101265.19
2022-08-17T20:59:20.826Z,101259.74
2022-08-17T21:02:17.571Z,101259.14
2022-08-17T21:04:50.252Z,101265.61
2022-08-17T21:07:42.822Z,101272.56
2022-08-17T21:10:24.139Z,101273.55
2022-08-17T21:13:14.116Z,101276.26
2022-08-17T21:16:07.976Z,101278.40
2022-08-17T21:18:42.142Z,101282.30
2022-08-17T21:21:25.081Z,101285.29
2022-08-17T21:24:35.765Z,101289.34
2022-08-17T21:27:09.790Z,101293.90
2022-08-17T21:30:06.804Z,101291.99
2022-08-17T21:32:41.868Z,101291.32
2022-08-17T21:35:44.814Z,101289.62
2022-08-17T21:38:16.208Z,101291.43
2022-08-17T21:40:50.092Z,101290.42
2022-08-17T21:43:32.630Z,101285.19
2022-08-17T21:46:22.150Z,101281.70
2022-08-17T21:48:54.565Z,101280.96
2022-08-17T21:51:26.495Z,101280.24
2022-08-17T21:53:58.750Z,101279.35
2022-08-17T21:56:38.701Z,101276.29
2022-08-17T21:59:37.564Z,101270.83
2022-08-17T22:02:30.524Z,101266.76
2022-08-17T22:05:00.511Z,101263.89
2022-08-17T22:07:48.807Z,101258.88
2022-08-17T22:10:39.525Z,101256.61
2022-08-17T22:13:17.193Z,101250.15
2022-08-17T22:16:15.301Z,101249.44
2022-08-17T22:18:46.278Z,101250.04
2022-08-17T22:21:17.283Z,101249.27
2022-08-17T22:24:06.242Z,101250.91
2022-08-17T22:27:02.445Z,101254.79
2022-08-17T22:29:57.027Z,101263.42
2022-08-17T22:32:40.060Z,101277.61
2022-08-17T22:35:30.147Z,101289.11
2022-08-17T22:38:18.134Z,101297.81
2022-08-17T22:40:52.701Z,101290.73
2022-08-17T22:43:26.342Z,101283.92
2022-08-17T22:45:58.264Z,101276.23
2022-08-17T22:48:29.620Z,101274.30
2022-08-17T22:51:13.986Z,101278.58
2022-08-17T22:54:13.731Z,101280.17
2022-08-17T22:57:31.614Z,101275.13
2022-08-17T23:00:01.605Z,101273.12
2022-08-17T23:02:34.805Z,101271.65
2022-08-17T23:05:13.170Z,101272.65
2022-08-17T23:07:43.348Z,101270.44
2022-08-17T23:10:12.447Z,101276.02
2022-08-17T23:12:40.841Z,101276.09
2022-08-17T23:15:14.510Z,101276.90
2022-08-17T23:17:43.109Z,101274.71
2022-08-17T23:20:15.215Z,101270.21
2022-08-17T23:22:52.239Z,101261.27
2022-08-17T23:25:31.690Z,101258.66
2022-08-17T23:28:04.252Z,101260.69
2022-08-17T23:30:37.358Z,101262.64
2022-08-17T23:33:10.651Z,101272.25
2022-08-17T23:35:39.931Z,101276.45
2022-08-17T23:38:11.004Z,101279.91
2022-08-17T23:40:40.155Z,101271.02
2022-08-17T23:43:24.138Z,101263.91
2022-08-17T23:46:00.811Z,101266.17
2022-08-17T23:48:35.823Z,101269.39
2022-08-17T23:51:09.896Z,101270.61
2022-08-17T23:53:44.838Z,101278.05
2022-08-17T23:56:13.272Z,101279.45
2022-08-17T23:58:43.428Z,101279.98
